sensor_id;sensor_type;location;lat;lon;timestamp;pressure;altitude;pressure_sealevel;temperature;humidity
59829;BME280;45708;51.848;107.620;2023-02-01T00:04:15;96155.09;;;-21.31;67.65
59829;BME280;45708;51.848;107.620;2023-02-01T00:09:16;96163.47;;;-21.35;67.50
59829;BME280;45708;51.848;107.620;2023-02-01T00:14:17;96163.50;;;-21.38;68.01
59829;BME280;45708;51.848;107.620;2023-02-01T00:19:17;96161.81;;;-21.45;68.15
59829;BME280;45708;51.848;107.620;2023-02-01T00:24:18;96163.50;;;-21.50;68.02
59829;BME280;45708;51.848;107.620;2023-02-01T00:29:19;96174.41;;;-21.61;67.98
59829;BME280;45708;51.848;107.620;2023-02-01T00:34:20;96175.22;;;-21.69;67.82
59829;BME280;45708;51.848;107.620;2023-02-01T00:39:21;96181.88;;;-22.03;67.78
59829;BME280;45708;51.848;107.620;2023-02-01T00:44:22;96193.56;;;-22.48;67.56
59829;BME280;45708;51.848;107.620;2023-02-01T00:49:23;96196.00;;;-22.71;67.87
59829;BME280;45708;51.848;107.620;2023-02-01T00:54:23;96203.56;;;-22.45;67.93
59829;BME280;45708;51.848;107.620;2023-02-01T00:59:25;96185.09;;;-21.01;68.66
59829;BME280;45708;51.848;107.620;2023-02-01T01:04:26;96194.72;;;-20.15;67.33
59829;BME280;45708;51.848;107.620;2023-02-01T01:09:26;96182.59;;;-19.58;65.87
59829;BME280;45708;51.848;107.620;2023-02-01T01:14:28;96187.22;;;-18.47;65.31
59829;BME280;45708;51.848;107.620;2023-02-01T01:19:29;96186.81;;;-17.59;63.91
59829;BME280;45708;51.848;107.620;2023-02-01T01:24:29;96178.19;;;-16.98;62.60
59829;BME280;45708;51.848;107.620;2023-02-01T01:29:30;96177.47;;;-16.20;61.10
59829;BME280;45708;51.848;107.620;2023-02-01T01:34:31;96184.19;;;-15.79;61.19
59829;BME280;45708;51.848;107.620;2023-02-01T01:39:32;96188.25;;;-16.95;60.91
59829;BME280;45708;51.848;107.620;2023-02-01T01:49:58;96189.63;;;-18.37;60.42
59829;BME280;45708;51.848;107.620;2023-02-01T01:55:00;96190.31;;;-18.92;61.40
59829;BME280;45708;51.848;107.620;2023-02-01T02:00:08;96205.09;;;-19.48;59.69
59829;BME280;45708;51.848;107.620;2023-02-01T02:05:10;96206.06;;;-19.59;60.79
59829;BME280;45708;51.848;107.620;2023-02-01T02:10:14;96199.03;;;-19.27;61.62
59829;BME280;45708;51.848;107.620;2023-02-01T02:15:15;96199.38;;;-19.60;60.68
59829;BME280;45708;51.848;107.620;2023-02-01T02:31:46;96205.69;;;-19.23;61.38
59829;BME280;45708;51.848;107.620;2023-02-01T02:37:04;96197.16;;;-19.06;61.26
59829;BME280;45708;51.848;107.620;2023-02-01T02:42:50;96202.16;;;-19.03;61.61
59829;BME280;45708;51.848;107.620;2023-02-01T02:48:11;96204.72;;;-19.06;61.22
59829;BME280;45708;51.848;107.620;2023-02-01T02:53:19;96197.19;;;-19.10;62.25
59829;BME280;45708;51.848;107.620;2023-02-01T02:58:22;96192.84;;;-18.95;61.49
59829;BME280;45708;51.848;107.620;2023-02-01T03:03:23;96184.28;;;-18.79;62.03
59829;BME280;45708;51.848;107.620;2023-02-01T03:08:26;96183.31;;;-18.69;61.72
59829;BME280;45708;51.848;107.620;2023-02-01T03:34:48;96161.66;;;-17.67;61.38
59829;BME280;45708;51.848;107.620;2023-02-01T03:39:56;96157.25;;;-17.05;60.90
59829;BME280;45708;51.848;107.620;2023-02-01T03:50:23;96140.41;;;-16.21;59.94
59829;BME280;45708;51.848;107.620;2023-02-01T03:55:26;96126.41;;;-15.98;59.59
59829;BME280;45708;51.848;107.620;2023-02-01T04:00:29;96119.41;;;-16.26;59.39
59829;BME280;45708;51.848;107.620;2023-02-01T04:05:30;96107.50;;;-16.59;60.01
59829;BME280;45708;51.848;107.620;2023-02-01T04:10:31;96116.44;;;-16.45;60.31
59829;BME280;45708;51.848;107.620;2023-02-01T04:15:31;96095.19;;;-16.36;60.11
59829;BME280;45708;51.848;107.620;2023-02-01T04:20:32;96090.66;;;-16.22;60.23
59829;BME280;45708;51.848;107.620;2023-02-01T04:25:33;96092.06;;;-16.10;59.87
59829;BME280;45708;51.848;107.620;2023-02-01T04:30:35;96077.56;;;-15.68;60.26
59829;BME280;45708;51.848;107.620;2023-02-01T04:35:36;96057.22;;;-15.32;59.82
59829;BME280;45708;51.848;107.620;2023-02-01T04:40:37;96052.81;;;-15.26;59.74
59829;BME280;45708;51.848;107.620;2023-02-01T04:45:38;96044.53;;;-15.00;58.65
59829;BME280;45708;51.848;107.620;2023-02-01T04:50:39;96040.50;;;-14.78;59.11
59829;BME280;45708;51.848;107.620;2023-02-01T04:55:40;96027.06;;;-14.52;58.92
59829;BME280;45708;51.848;107.620;2023-02-01T05:00:40;96010.81;;;-14.46;58.91
59829;BME280;45708;51.848;107.620;2023-02-01T05:05:41;96011.56;;;-14.70;58.32
59829;BME280;45708;51.848;107.620;2023-02-01T05:10:42;96008.22;;;-14.17;58.15
59829;BME280;45708;51.848;107.620;2023-02-01T05:15:45;96005.38;;;-14.07;57.98
59829;BME280;45708;51.848;107.620;2023-02-01T05:20:46;95996.63;;;-13.99;57.33
59829;BME280;45708;51.848;107.620;2023-02-01T05:25:46;95986.00;;;-13.85;57.14
59829;BME280;45708;51.848;107.620;2023-02-01T05:30:47;95980.75;;;-14.05;57.14
59829;BME280;45708;51.848;107.620;2023-02-01T05:35:49;95982.91;;;-13.68;56.91
59829;BME280;45708;51.848;107.620;2023-02-01T05:40:50;95967.06;;;-14.01;56.64
59829;BME280;45708;51.848;107.620;2023-02-01T05:45:54;95966.56;;;-13.86;56.91
59829;BME280;45708;51.848;107.620;2023-02-01T05:50:55;95953.63;;;-13.54;56.16
59829;BME280;45708;51.848;107.620;2023-02-01T05:55:56;95958.25;;;-13.41;56.21
59829;BME280;45708;51.848;107.620;2023-02-01T06:00:59;95953.97;;;-13.16;54.81
59829;BME280;45708;51.848;107.620;2023-02-01T06:06:00;95947.38;;;-13.20;55.15
59829;BME280;45708;51.848;107.620;2023-02-01T06:11:03;95949.22;;;-13.25;54.91
59829;BME280;45708;51.848;107.620;2023-02-01T06:16:05;95940.75;;;-13.49;54.55
59829;BME280;45708;51.848;107.620;2023-02-01T06:21:06;95940.97;;;-13.55;54.68
59829;BME280;45708;51.848;107.620;2023-02-01T06:26:06;95943.38;;;-14.00;54.70
59829;BME280;45708;51.848;107.620;2023-02-01T06:31:07;95930.09;;;-14.08;55.39
59829;BME280;45708;51.848;107.620;2023-02-01T06:36:10;95936.81;;;-14.07;54.01
59829;BME280;45708;51.848;107.620;2023-02-01T06:41:11;95930.00;;;-14.32;54.77
59829;BME280;45708;51.848;107.620;2023-02-01T06:46:14;95924.25;;;-14.37;54.39
59829;BME280;45708;51.848;107.620;2023-02-01T06:51:20;95916.72;;;-14.14;54.59
59829;BME280;45708;51.848;107.620;2023-02-01T06:56:21;95924.19;;;-13.84;54.71
59829;BME280;45708;51.848;107.620;2023-02-01T07:01:22;95912.97;;;-13.54;54.37
59829;BME280;45708;51.848;107.620;2023-02-01T07:06:23;95915.75;;;-13.36;54.57
59829;BME280;45708;51.848;107.620;2023-02-01T07:11:24;95906.19;;;-13.30;53.75
59829;BME280;45708;51.848;107.620;2023-02-01T07:16:25;95910.44;;;-13.30;53.22
59829;BME280;45708;51.848;107.620;2023-02-01T07:21:25;95899.88;;;-13.43;54.45
59829;BME280;45708;51.848;107.620;2023-02-01T07:26:26;95902.16;;;-13.35;53.52
59829;BME280;45708;51.848;107.620;2023-02-01T07:31:27;95907.56;;;-13.44;53.41
59829;BME280;45708;51.848;107.620;2023-02-01T07:36:28;95887.47;;;-13.50;54.21
59829;BME280;45708;51.848;107.620;2023-02-01T07:41:29;95893.59;;;-13.56;53.98
59829;BME280;45708;51.848;107.620;2023-02-01T07:46:30;95895.19;;;-13.54;52.91
59829;BME280;45708;51.848;107.620;2023-02-01T07:51:31;95893.44;;;-13.52;53.51
59829;BME280;45708;51.848;107.620;2023-02-01T07:56:32;95898.28;;;-13.45;53.55
59829;BME280;45708;51.848;107.620;2023-02-01T08:01:32;95881.72;;;-13.56;53.55
59829;BME280;45708;51.848;107.620;2023-02-01T08:06:33;95884.91;;;-13.74;53.19
59829;BME280;45708;51.848;107.620;2023-02-01T08:11:34;95890.22;;;-13.82;53.29
59829;BME280;45708;51.848;107.620;2023-02-01T08:16:35;95889.25;;;-14.02;54.81
59829;BME280;45708;51.848;107.620;2023-02-01T08:21:36;95887.72;;;-14.06;54.11
59829;BME280;45708;51.848;107.620;2023-02-01T08:26:37;95890.09;;;-14.02;55.23
59829;BME280;45708;51.848;107.620;2023-02-01T08:31:38;95886.47;;;-13.95;54.01
59829;BME280;45708;51.848;107.620;2023-02-01T08:36:38;95887.09;;;-13.88;54.37
59829;BME280;45708;51.848;107.620;2023-02-01T08:41:39;95880.25;;;-13.86;54.31
59829;BME280;45708;51.848;107.620;2023-02-01T08:46:40;95882.47;;;-13.77;54.52
59829;BME280;45708;51.848;107.620;2023-02-01T08:51:41;95877.00;;;-13.66;55.13
59829;BME280;45708;51.848;107.620;2023-02-01T08:56:41;95877.84;;;-13.66;54.30
59829;BME280;45708;51.848;107.620;2023-02-01T09:01:42;95875.28;;;-13.66;54.47
59829;BME280;45708;51.848;107.620;2023-02-01T09:06:43;95875.47;;;-13.70;54.34
59829;BME280;45708;51.848;107.620;2023-02-01T09:11:44;95878.16;;;-13.75;55.24
59829;BME280;45708;51.848;107.620;2023-02-01T09:16:46;95874.28;;;-13.85;54.37
59829;BME280;45708;51.848;107.620;2023-02-01T09:21:47;95862.97;;;-14.01;54.93
59829;BME280;45708;51.848;107.620;2023-02-01T09:26:48;95876.94;;;-14.13;55.26
59829;BME280;45708;51.848;107.620;2023-02-01T09:31:49;95873.88;;;-14.23;56.05
59829;BME280;45708;51.848;107.620;2023-02-01T09:36:50;95854.31;;;-14.44;55.01
59829;BME280;45708;51.848;107.620;2023-02-01T09:42:04;95867.59;;;-14.62;55.63
59829;BME280;45708;51.848;107.620;2023-02-01T09:47:14;95866.81;;;-14.91;55.55
59829;BME280;45708;51.848;107.620;2023-02-01T09:52:17;95869.84;;;-15.08;55.55
59829;BME280;45708;51.848;107.620;2023-02-01T09:57:25;95871.31;;;-15.28;56.93
59829;BME280;45708;51.848;107.620;2023-02-01T10:02:29;95880.31;;;-15.48;56.97
59829;BME280;45708;51.848;107.620;2023-02-01T10:07:51;95877.56;;;-15.68;55.96
59829;BME280;45708;51.848;107.620;2023-02-01T10:13:51;95877.28;;;-15.88;56.77
59829;BME280;45708;51.848;107.620;2023-02-01T10:19:14;95885.22;;;-16.01;57.46
59829;BME280;45708;51.848;107.620;2023-02-01T10:24:33;95883.78;;;-16.11;57.02
59829;BME280;45708;51.848;107.620;2023-02-01T10:29:39;95889.13;;;-16.23;57.06
59829;BME280;45708;51.848;107.620;2023-02-01T10:34:41;95890.97;;;-16.28;57.31
59829;BME280;45708;51.848;107.620;2023-02-01T10:39:43;95898.88;;;-16.40;57.49
59829;BME280;45708;51.848;107.620;2023-02-01T10:44:45;95893.09;;;-16.45;57.04
59829;BME280;45708;51.848;107.620;2023-02-01T10:54:55;95898.41;;;-16.56;58.06
59829;BME280;45708;51.848;107.620;2023-02-01T10:59:56;95900.59;;;-16.75;57.86
59829;BME280;45708;51.848;107.620;2023-02-01T11:05:06;95913.50;;;-16.87;58.63
59829;BME280;45708;51.848;107.620;2023-02-01T11:10:38;95909.63;;;-17.03;58.24
59829;BME280;45708;51.848;107.620;2023-02-01T11:15:43;95906.69;;;-17.20;58.90
59829;BME280;45708;51.848;107.620;2023-02-01T11:20:45;95909.31;;;-17.27;58.85
59829;BME280;45708;51.848;107.620;2023-02-01T11:25:53;95903.91;;;-17.50;59.18
59829;BME280;45708;51.848;107.620;2023-02-01T11:30:56;95906.06;;;-17.70;58.76
59829;BME280;45708;51.848;107.620;2023-02-01T11:35:58;95903.84;;;-17.87;59.58
59829;BME280;45708;51.848;107.620;2023-02-01T11:41:14;95898.72;;;-17.82;60.28
59829;BME280;45708;51.848;107.620;2023-02-01T11:46:18;95898.03;;;-17.91;60.32
59829;BME280;45708;51.848;107.620;2023-02-01T11:51:36;95897.28;;;-17.94;59.87
59829;BME280;45708;51.848;107.620;2023-02-01T11:57:14;95901.63;;;-18.04;60.61
59829;BME280;45708;51.848;107.620;2023-02-01T12:19:02;95899.81;;;-18.40;61.08
59829;BME280;45708;51.848;107.620;2023-02-01T12:35:13;95898.81;;;-18.32;60.62
59829;BME280;45708;51.848;107.620;2023-02-01T12:45:46;95913.31;;;-18.46;60.59
59829;BME280;45708;51.848;107.620;2023-02-01T12:50:57;95907.56;;;-18.53;61.60
59829;BME280;45708;51.848;107.620;2023-02-01T12:56:03;95900.13;;;-18.59;61.10
59829;BME280;45708;51.848;107.620;2023-02-01T13:01:12;95898.50;;;-18.63;61.32
59829;BME280;45708;51.848;107.620;2023-02-01T13:06:51;95905.19;;;-18.62;61.13
59829;BME280;45708;51.848;107.620;2023-02-01T13:11:57;95914.44;;;-18.61;61.58
59829;BME280;45708;51.848;107.620;2023-02-01T13:17:37;95909.47;;;-18.65;61.67
59829;BME280;45708;51.848;107.620;2023-02-01T13:22:43;95903.69;;;-18.70;62.27
59829;BME280;45708;51.848;107.620;2023-02-01T13:27:46;95898.72;;;-18.75;61.88
59829;BME280;45708;51.848;107.620;2023-02-01T13:43:33;95881.44;;;-18.96;62.46
59829;BME280;45708;51.848;107.620;2023-02-01T13:48:49;95876.47;;;-18.99;62.57
59829;BME280;45708;51.848;107.620;2023-02-01T13:53:50;95878.28;;;-19.11;63.03
59829;BME280;45708;51.848;107.620;2023-02-01T13:58:51;95861.81;;;-19.30;62.78
59829;BME280;45708;51.848;107.620;2023-02-01T14:04:05;95855.94;;;-19.30;62.97
59829;BME280;45708;51.848;107.620;2023-02-01T14:09:16;95858.38;;;-19.26;63.49
59829;BME280;45708;51.848;107.620;2023-02-01T14:24:31;95861.88;;;-19.34;63.18
59829;BME280;45708;51.848;107.620;2023-02-01T14:29:38;95856.91;;;-19.39;62.76
59829;BME280;45708;51.848;107.620;2023-02-01T14:56:00;95865.59;;;-19.58;62.67
59829;BME280;45708;51.848;107.620;2023-02-01T15:01:06;95856.47;;;-19.67;62.73
59829;BME280;45708;51.848;107.620;2023-02-01T15:17:15;95855.81;;;-19.80;63.17
59829;BME280;45708;51.848;107.620;2023-02-01T15:22:19;95842.50;;;-19.88;62.93
59829;BME280;45708;51.848;107.620;2023-02-01T15:27:20;95857.69;;;-19.94;62.88
59829;BME280;45708;51.848;107.620;2023-02-01T15:32:40;95856.09;;;-20.01;62.93
59829;BME280;45708;51.848;107.620;2023-02-01T15:37:40;95846.06;;;-20.04;63.12
59829;BME280;45708;51.848;107.620;2023-02-01T15:43:01;95857.97;;;-20.18;63.43
59829;BME280;45708;51.848;107.620;2023-02-01T15:48:04;95853.00;;;-20.24;63.43
59829;BME280;45708;51.848;107.620;2023-02-01T15:53:04;95853.06;;;-20.30;63.39
59829;BME280;45708;51.848;107.620;2023-02-01T15:58:17;95856.44;;;-20.32;63.89
59829;BME280;45708;51.848;107.620;2023-02-01T16:08:49;95856.69;;;-20.51;63.77
59829;BME280;45708;51.848;107.620;2023-02-01T16:13:51;95855.09;;;-20.60;63.95
59829;BME280;45708;51.848;107.620;2023-02-01T16:18:52;95848.50;;;-20.70;64.17
59829;BME280;45708;51.848;107.620;2023-02-01T16:23:53;95849.31;;;-20.68;64.19
59829;BME280;45708;51.848;107.620;2023-02-01T16:28:54;95848.50;;;-20.70;64.13
59829;BME280;45708;51.848;107.620;2023-02-01T16:33:55;95854.41;;;-20.74;64.33
59829;BME280;45708;51.848;107.620;2023-02-01T16:38:55;95851.97;;;-20.82;64.39
59829;BME280;45708;51.848;107.620;2023-02-01T16:43:56;95852.00;;;-20.88;64.21
59829;BME280;45708;51.848;107.620;2023-02-01T16:48:58;95856.22;;;-20.90;64.26
59829;BME280;45708;51.848;107.620;2023-02-01T16:54:00;95852.09;;;-20.96;64.34
59829;BME280;45708;51.848;107.620;2023-02-01T16:59:01;95846.31;;;-21.07;64.29
59829;BME280;45708;51.848;107.620;2023-02-01T17:04:03;95848.88;;;-21.13;64.40
59829;BME280;45708;51.848;107.620;2023-02-01T17:09:04;95852.28;;;-21.20;64.65
59829;BME280;45708;51.848;107.620;2023-02-01T17:14:21;95859.03;;;-21.25;64.56
59829;BME280;45708;51.848;107.620;2023-02-01T17:19:22;95833.22;;;-21.36;64.56
59829;BME280;45708;51.848;107.620;2023-02-01T17:24:26;95838.25;;;-21.38;64.28
59829;BME280;45708;51.848;107.620;2023-02-01T17:29:28;95844.97;;;-21.44;64.53
59829;BME280;45708;51.848;107.620;2023-02-01T17:34:29;95842.59;;;-21.64;64.17
59829;BME280;45708;51.848;107.620;2023-02-01T17:39:30;95835.09;;;-21.70;64.91
59829;BME280;45708;51.848;107.620;2023-02-01T17:44:31;95851.75;;;-21.59;64.75
59829;BME280;45708;51.848;107.620;2023-02-01T17:49:32;95850.91;;;-21.58;64.90
59829;BME280;45708;51.848;107.620;2023-02-01T17:54:32;95847.63;;;-21.69;64.92
59829;BME280;45708;51.848;107.620;2023-02-01T17:59:33;95846.00;;;-21.76;64.89
59829;BME280;45708;51.848;107.620;2023-02-01T18:04:34;95846.06;;;-21.88;64.84
59829;BME280;45708;51.848;107.620;2023-02-01T18:09:35;95851.06;;;-21.79;65.10
59829;BME280;45708;51.848;107.620;2023-02-01T18:14:36;95850.22;;;-21.84;65.01
59829;BME280;45708;51.848;107.620;2023-02-01T18:19:36;95837.75;;;-21.93;65.02
59829;BME280;45708;51.848;107.620;2023-02-01T18:24:37;95851.09;;;-21.88;65.47
59829;BME280;45708;51.848;107.620;2023-02-01T18:29:38;95851.06;;;-21.85;65.77
59829;BME280;45708;51.848;107.620;2023-02-01T18:34:39;95846.03;;;-21.79;65.51
59829;BME280;45708;51.848;107.620;2023-02-01T18:39:40;95836.84;;;-21.78;65.37
59829;BME280;45708;51.848;107.620;2023-02-01T18:44:40;95846.81;;;-21.72;65.33
59829;BME280;45708;51.848;107.620;2023-02-01T18:49:41;95844.34;;;-21.74;65.49
59829;BME280;45708;51.848;107.620;2023-02-01T18:54:42;95840.19;;;-21.79;65.19
59829;BME280;45708;51.848;107.620;2023-02-01T18:59:43;95834.34;;;-21.80;65.58
59829;BME280;45708;51.848;107.620;2023-02-01T19:04:44;95847.66;;;-21.72;65.57
59829;BME280;45708;51.848;107.620;2023-02-01T19:09:44;95846.78;;;-21.66;65.31
59829;BME280;45708;51.848;107.620;2023-02-01T19:14:45;95832.63;;;-21.72;65.30
59829;BME280;45708;51.848;107.620;2023-02-01T19:19:46;95840.91;;;-21.61;65.25
59829;BME280;45708;51.848;107.620;2023-02-01T19:24:47;95842.53;;;-21.53;65.16
59829;BME280;45708;51.848;107.620;2023-02-01T19:29:47;95835.81;;;-21.51;65.56
59829;BME280;45708;51.848;107.620;2023-02-01T19:34:48;95831.56;;;-21.43;65.44
59829;BME280;45708;51.848;107.620;2023-02-01T19:39:49;95821.63;;;-21.54;65.44
59829;BME280;45708;51.848;107.620;2023-02-01T19:44:50;95824.06;;;-21.43;65.71
59829;BME280;45708;51.848;107.620;2023-02-01T19:49:51;95814.81;;;-21.37;65.30
59829;BME280;45708;51.848;107.620;2023-02-01T19:54:51;95818.09;;;-21.29;65.53
59829;BME280;45708;51.848;107.620;2023-02-01T19:59:53;95813.03;;;-21.24;65.30
59829;BME280;45708;51.848;107.620;2023-02-01T20:04:54;95807.97;;;-21.21;65.21
59829;BME280;45708;51.848;107.620;2023-02-01T20:09:55;95792.09;;;-21.20;64.86
59829;BME280;45708;51.848;107.620;2023-02-01T20:14:56;95796.16;;;-21.11;65.42
59829;BME280;45708;51.848;107.620;2023-02-01T20:19:56;95800.38;;;-21.15;65.25
59829;BME280;45708;51.848;107.620;2023-02-01T20:24:57;95795.44;;;-21.21;65.42
59829;BME280;45708;51.848;107.620;2023-02-01T20:29:58;95792.16;;;-21.26;65.27
59829;BME280;45708;51.848;107.620;2023-02-01T20:34:59;95788.81;;;-21.28;64.99
59829;BME280;45708;51.848;107.620;2023-02-01T20:40:00;95788.72;;;-21.19;65.12
59829;BME280;45708;51.848;107.620;2023-02-01T20:45:02;95789.53;;;-21.15;64.62
59829;BME280;45708;51.848;107.620;2023-02-01T20:50:03;95796.44;;;-21.39;64.86
59829;BME280;45708;51.848;107.620;2023-02-01T20:55:04;95794.00;;;-21.49;64.93
59829;BME280;45708;51.848;107.620;2023-02-01T21:00:06;95784.09;;;-21.62;65.18
59829;BME280;45708;51.848;107.620;2023-02-01T21:05:07;95782.41;;;-21.64;64.95
59829;BME280;45708;51.848;107.620;2023-02-01T21:10:09;95774.97;;;-21.72;65.02
59829;BME280;45708;51.848;107.620;2023-02-01T21:15:10;95773.34;;;-21.77;65.26
59829;BME280;45708;51.848;107.620;2023-02-01T21:20:11;95782.56;;;-21.87;65.05
59829;BME280;45708;51.848;107.620;2023-02-01T21:25:12;95781.78;;;-21.92;65.19
59829;BME280;45708;51.848;107.620;2023-02-01T21:30:13;95765.19;;;-22.07;65.38
59829;BME280;45708;51.848;107.620;2023-02-01T21:35:15;95774.47;;;-22.23;65.67
59829;BME280;45708;51.848;107.620;2023-02-01T21:40:16;95765.38;;;-22.37;65.64
59829;BME280;45708;51.848;107.620;2023-02-01T21:45:17;95767.91;;;-22.45;65.33
59829;BME280;45708;51.848;107.620;2023-02-01T21:50:19;95762.13;;;-22.55;65.59
59829;BME280;45708;51.848;107.620;2023-02-01T21:55:20;95767.16;;;-22.67;65.96
59829;BME280;45708;51.848;107.620;2023-02-01T22:00:21;95756.44;;;-22.81;65.80
59829;BME280;45708;51.848;107.620;2023-02-01T22:05:21;95760.59;;;-22.88;66.04
59829;BME280;45708;51.848;107.620;2023-02-01T22:10:22;95760.66;;;-23.00;65.66
59829;BME280;45708;51.848;107.620;2023-02-01T22:15:23;95752.28;;;-23.03;65.93
59829;BME280;45708;51.848;107.620;2023-02-01T22:20:24;95750.59;;;-22.91;66.20
59829;BME280;45708;51.848;107.620;2023-02-01T22:25:24;95749.75;;;-22.88;66.21
59829;BME280;45708;51.848;107.620;2023-02-01T22:30:25;95755.63;;;-22.92;65.72
59829;BME280;45708;51.848;107.620;2023-02-01T22:35:26;95738.09;;;-22.94;65.86
59829;BME280;45708;51.848;107.620;2023-02-01T22:40:27;95756.44;;;-22.89;66.54
59829;BME280;45708;51.848;107.620;2023-02-01T22:45:27;95728.13;;;-23.00;65.95
59829;BME280;45708;51.848;107.620;2023-02-01T22:50:28;95748.16;;;-23.00;65.74
59829;BME280;45708;51.848;107.620;2023-02-01T22:55:30;95746.50;;;-23.13;66.58
59829;BME280;45708;51.848;107.620;2023-02-01T23:00:31;95744.81;;;-23.02;66.94
59829;BME280;45708;51.848;107.620;2023-02-01T23:05:32;95743.97;;;-23.04;66.25
59829;BME280;45708;51.848;107.620;2023-02-01T23:10:32;95758.13;;;-23.06;66.23
59829;BME280;45708;51.848;107.620;2023-02-01T23:15:33;95747.31;;;-23.09;66.82
59829;BME280;45708;51.848;107.620;2023-02-01T23:20:34;95753.19;;;-23.18;66.91
59829;BME280;45708;51.848;107.620;2023-02-01T23:25:35;95755.69;;;-23.26;66.30
59829;BME280;45708;51.848;107.620;2023-02-01T23:30:36;95754.03;;;-23.33;66.73
59829;BME280;45708;51.848;107.620;2023-02-01T23:35:36;95746.53;;;-23.28;66.83
59829;BME280;45708;51.848;107.620;2023-02-01T23:40:37;95748.22;;;-23.33;66.40
59829;BME280;45708;51.848;107.620;2023-02-01T23:45:38;95746.56;;;-23.37;66.48
59829;BME280;45708;51.848;107.620;2023-02-01T23:50:39;95757.41;;;-23.38;66.28
59829;BME280;45708;51.848;107.620;2023-02-01T23:55:39;95764.03;;;-23.33;66.90
